Elmdale, New York
Current Conditions -  °F | °C
As of 8:08 PM on Tuesday 21 Oct 2014 (Local Time) from KGTB Reporting Station
Overcast Overcast  
Wind Chill: 35°   Ceiling: 400
Heat Index: 43°   Visibility: 9mi
Dew Point: 43°   Wind: 15mph
Humidity: 100%   Direction: 40°NE
Pressure: 30.03"   Gusts: NA
Location:  44.3309°N, 75.4775°W
Report Text: KGTB 220008Z AUTO 04013KT 9SM OVC004 06/06 A3003 RMK AO2
Loading
Personal Weather Stations






























Interactive Weather Map
Tropical Storm Tracking
New forecast layout! Learn more

10-Day Weather Forecast

Advertisements
Track Severe Weather on mobile